sensor_id;sensor_type;location;lat;lon;timestamp;P1;durP1;ratioP1;P2;durP2;ratioP2
41568;SDS011;27283;52.504;13.358;2022-09-28T00:01:39;0.57;;;0.57;;
41568;SDS011;27283;52.504;13.358;2022-09-28T00:04:12;0.50;;;0.50;;
41568;SDS011;27283;52.504;13.358;2022-09-28T00:06:43;0.70;;;0.70;;
41568;SDS011;27283;52.504;13.358;2022-09-28T00:09:16;1.70;;;1.08;;
41568;SDS011;27283;52.504;13.358;2022-09-28T00:11:48;0.55;;;0.55;;
41568;SDS011;27283;52.504;13.358;2022-09-28T00:14:23;0.45;;;0.45;;
41568;SDS011;27283;52.504;13.358;2022-09-28T00:16:55;0.45;;;0.45;;
41568;SDS011;27283;52.504;13.358;2022-09-28T00:19:27;0.75;;;0.75;;
41568;SDS011;27283;52.504;13.358;2022-09-28T00:21:59;0.63;;;0.63;;
41568;SDS011;27283;52.504;13.358;2022-09-28T00:24:31;0.90;;;0.90;;
41568;SDS011;27283;52.504;13.358;2022-09-28T00:27:02;2.40;;;1.48;;
41568;SDS011;27283;52.504;13.358;2022-09-28T00:29:37;1.05;;;0.95;;
41568;SDS011;27283;52.504;13.358;2022-09-28T00:32:10;0.93;;;0.93;;
41568;SDS011;27283;52.504;13.358;2022-09-28T00:34:43;0.50;;;0.50;;
41568;SDS011;27283;52.504;13.358;2022-09-28T00:37:16;4.88;;;1.52;;
41568;SDS011;27283;52.504;13.358;2022-09-28T00:39:49;0.50;;;0.50;;
41568;SDS011;27283;52.504;13.358;2022-09-28T00:42:22;0.60;;;0.60;;
41568;SDS011;27283;52.504;13.358;2022-09-28T00:44:57;0.75;;;0.75;;
41568;SDS011;27283;52.504;13.358;2022-09-28T00:47:40;0.50;;;0.50;;
41568;SDS011;27283;52.504;13.358;2022-09-28T00:50:20;0.77;;;0.77;;
41568;SDS011;27283;52.504;13.358;2022-09-28T00:52:56;0.80;;;0.75;;
41568;SDS011;27283;52.504;13.358;2022-09-28T00:55:35;0.75;;;0.75;;
41568;SDS011;27283;52.504;13.358;2022-09-28T00:58:12;3.05;;;1.55;;
41568;SDS011;27283;52.504;13.358;2022-09-28T01:00:52;0.50;;;0.50;;
41568;SDS011;27283;52.504;13.358;2022-09-28T01:03:26;0.75;;;0.75;;
41568;SDS011;27283;52.504;13.358;2022-09-28T01:06:00;1.52;;;1.02;;
41568;SDS011;27283;52.504;13.358;2022-09-28T01:08:33;0.60;;;0.60;;
41568;SDS011;27283;52.504;13.358;2022-09-28T01:11:07;0.45;;;0.45;;
41568;SDS011;27283;52.504;13.358;2022-09-28T01:13:39;3.03;;;0.68;;
41568;SDS011;27283;52.504;13.358;2022-09-28T01:16:17;0.80;;;0.80;;
41568;SDS011;27283;52.504;13.358;2022-09-28T01:18:57;0.93;;;0.93;;
41568;SDS011;27283;52.504;13.358;2022-09-28T01:21:35;0.88;;;0.88;;
41568;SDS011;27283;52.504;13.358;2022-09-28T01:24:20;1.60;;;1.15;;
41568;SDS011;27283;52.504;13.358;2022-09-28T01:27:15;0.80;;;0.75;;
41568;SDS011;27283;52.504;13.358;2022-09-28T01:29:53;1.55;;;0.70;;
41568;SDS011;27283;52.504;13.358;2022-09-28T01:32:34;0.77;;;0.77;;
41568;SDS011;27283;52.504;13.358;2022-09-28T01:35:13;0.90;;;0.90;;
41568;SDS011;27283;52.504;13.358;2022-09-28T01:37:51;0.70;;;0.70;;
41568;SDS011;27283;52.504;13.358;2022-09-28T01:40:27;0.50;;;0.50;;
41568;SDS011;27283;52.504;13.358;2022-09-28T01:43:05;1.15;;;0.93;;
41568;SDS011;27283;52.504;13.358;2022-09-28T01:45:42;0.65;;;0.65;;
41568;SDS011;27283;52.504;13.358;2022-09-28T01:48:18;0.98;;;0.85;;
41568;SDS011;27283;52.504;13.358;2022-09-28T01:50:55;0.60;;;0.60;;
41568;SDS011;27283;52.504;13.358;2022-09-28T01:53:31;0.77;;;0.77;;
41568;SDS011;27283;52.504;13.358;2022-09-28T01:56:09;1.23;;;0.88;;
41568;SDS011;27283;52.504;13.358;2022-09-28T01:58:47;0.50;;;0.50;;
41568;SDS011;27283;52.504;13.358;2022-09-28T02:01:25;6.65;;;1.50;;
41568;SDS011;27283;52.504;13.358;2022-09-28T02:04:02;0.52;;;0.52;;
41568;SDS011;27283;52.504;13.358;2022-09-28T02:06:39;0.60;;;0.60;;
41568;SDS011;27283;52.504;13.358;2022-09-28T02:09:17;0.30;;;0.30;;
41568;SDS011;27283;52.504;13.358;2022-09-28T02:12:01;0.82;;;0.82;;
41568;SDS011;27283;52.504;13.358;2022-09-28T02:14:43;1.35;;;1.25;;
41568;SDS011;27283;52.504;13.358;2022-09-28T02:17:17;0.60;;;0.60;;
41568;SDS011;27283;52.504;13.358;2022-09-28T02:19:50;0.90;;;0.90;;
41568;SDS011;27283;52.504;13.358;2022-09-28T02:22:23;0.88;;;0.88;;
41568;SDS011;27283;52.504;13.358;2022-09-28T02:24:58;2.72;;;1.45;;
41568;SDS011;27283;52.504;13.358;2022-09-28T02:27:38;1.27;;;1.13;;
41568;SDS011;27283;52.504;13.358;2022-09-28T02:30:16;1.67;;;1.20;;
41568;SDS011;27283;52.504;13.358;2022-09-28T02:32:48;1.13;;;1.02;;
41568;SDS011;27283;52.504;13.358;2022-09-28T02:35:24;0.93;;;0.90;;
41568;SDS011;27283;52.504;13.358;2022-09-28T02:37:56;1.08;;;0.95;;
41568;SDS011;27283;52.504;13.358;2022-09-28T02:40:28;1.02;;;1.02;;
41568;SDS011;27283;52.504;13.358;2022-09-28T02:43:08;13.63;;;1.35;;
41568;SDS011;27283;52.504;13.358;2022-09-28T02:45:53;1.17;;;1.08;;
41568;SDS011;27283;52.504;13.358;2022-09-28T02:48:37;1.70;;;0.98;;
41568;SDS011;27283;52.504;13.358;2022-09-28T02:51:43;0.93;;;0.93;;
41568;SDS011;27283;52.504;13.358;2022-09-28T02:57:23;1.42;;;1.02;;
41568;SDS011;27283;52.504;13.358;2022-09-28T03:00:06;1.60;;;1.38;;
41568;SDS011;27283;52.504;13.358;2022-09-28T03:02:47;1.35;;;1.25;;
41568;SDS011;27283;52.504;13.358;2022-09-28T03:05:30;0.90;;;0.90;;
41568;SDS011;27283;52.504;13.358;2022-09-28T03:08:10;1.05;;;0.90;;
41568;SDS011;27283;52.504;13.358;2022-09-28T03:10:52;0.93;;;0.93;;
41568;SDS011;27283;52.504;13.358;2022-09-28T03:13:28;1.35;;;1.25;;
41568;SDS011;27283;52.504;13.358;2022-09-28T03:16:08;1.20;;;1.10;;
41568;SDS011;27283;52.504;13.358;2022-09-28T03:18:44;1.02;;;0.95;;
41568;SDS011;27283;52.504;13.358;2022-09-28T03:21:17;2.33;;;1.52;;
41568;SDS011;27283;52.504;13.358;2022-09-28T03:23:48;2.03;;;1.10;;
41568;SDS011;27283;52.504;13.358;2022-09-28T03:26:35;4.63;;;1.92;;
41568;SDS011;27283;52.504;13.358;2022-09-28T03:29:08;1.70;;;1.60;;
41568;SDS011;27283;52.504;13.358;2022-09-28T03:31:39;1.13;;;1.13;;
41568;SDS011;27283;52.504;13.358;2022-09-28T03:34:14;1.23;;;1.13;;
41568;SDS011;27283;52.504;13.358;2022-09-28T03:36:46;1.45;;;1.35;;
41568;SDS011;27283;52.504;13.358;2022-09-28T03:39:18;2.42;;;2.00;;
41568;SDS011;27283;52.504;13.358;2022-09-28T03:41:49;0.73;;;0.73;;
41568;SDS011;27283;52.504;13.358;2022-09-28T03:44:39;1.90;;;1.50;;
41568;SDS011;27283;52.504;13.358;2022-09-28T03:47:36;2.15;;;0.95;;
41568;SDS011;27283;52.504;13.358;2022-09-28T03:50:11;1.42;;;1.33;;
41568;SDS011;27283;52.504;13.358;2022-09-28T03:52:42;1.67;;;1.33;;
41568;SDS011;27283;52.504;13.358;2022-09-28T03:55:14;2.20;;;2.00;;
41568;SDS011;27283;52.504;13.358;2022-09-28T03:57:51;1.40;;;1.25;;
41568;SDS011;27283;52.504;13.358;2022-09-28T04:00:24;2.15;;;1.60;;
41568;SDS011;27283;52.504;13.358;2022-09-28T04:02:55;1.27;;;1.10;;
41568;SDS011;27283;52.504;13.358;2022-09-28T04:05:29;1.05;;;1.02;;
41568;SDS011;27283;52.504;13.358;2022-09-28T04:08:01;1.00;;;1.00;;
41568;SDS011;27283;52.504;13.358;2022-09-28T04:10:33;1.00;;;0.98;;
41568;SDS011;27283;52.504;13.358;2022-09-28T04:13:04;1.25;;;1.17;;
41568;SDS011;27283;52.504;13.358;2022-09-28T04:15:36;1.08;;;1.05;;
41568;SDS011;27283;52.504;13.358;2022-09-28T04:18:08;1.33;;;0.85;;
41568;SDS011;27283;52.504;13.358;2022-09-28T04:20:43;2.00;;;1.77;;
41568;SDS011;27283;52.504;13.358;2022-09-28T04:23:15;2.25;;;1.67;;
41568;SDS011;27283;52.504;13.358;2022-09-28T04:25:50;3.30;;;2.00;;
41568;SDS011;27283;52.504;13.358;2022-09-28T04:28:21;3.00;;;1.73;;
41568;SDS011;27283;52.504;13.358;2022-09-28T04:31:07;0.93;;;0.93;;
41568;SDS011;27283;52.504;13.358;2022-09-28T04:33:39;1.77;;;1.67;;
41568;SDS011;27283;52.504;13.358;2022-09-28T04:36:38;1.73;;;1.63;;
41568;SDS011;27283;52.504;13.358;2022-09-28T04:39:10;0.98;;;0.98;;
41568;SDS011;27283;52.504;13.358;2022-09-28T04:41:41;0.98;;;0.98;;
41568;SDS011;27283;52.504;13.358;2022-09-28T04:44:13;1.70;;;1.52;;
41568;SDS011;27283;52.504;13.358;2022-09-28T04:46:45;2.38;;;1.73;;
41568;SDS011;27283;52.504;13.358;2022-09-28T04:49:17;2.25;;;2.00;;
41568;SDS011;27283;52.504;13.358;2022-09-28T04:51:51;1.52;;;1.35;;
41568;SDS011;27283;52.504;13.358;2022-09-28T04:54:22;3.20;;;2.50;;
41568;SDS011;27283;52.504;13.358;2022-09-28T04:56:54;1.40;;;1.30;;
41568;SDS011;27283;52.504;13.358;2022-09-28T04:59:26;2.08;;;1.92;;
41568;SDS011;27283;52.504;13.358;2022-09-28T05:01:57;1.45;;;1.35;;
41568;SDS011;27283;52.504;13.358;2022-09-28T05:04:29;1.35;;;1.25;;
41568;SDS011;27283;52.504;13.358;2022-09-28T05:07:03;1.35;;;1.25;;
41568;SDS011;27283;52.504;13.358;2022-09-28T05:09:35;1.83;;;1.40;;
41568;SDS011;27283;52.504;13.358;2022-09-28T05:12:07;1.35;;;1.25;;
41568;SDS011;27283;52.504;13.358;2022-09-28T05:14:39;1.25;;;1.15;;
41568;SDS011;27283;52.504;13.358;2022-09-28T05:17:11;0.90;;;0.90;;
41568;SDS011;27283;52.504;13.358;2022-09-28T05:19:42;3.17;;;1.95;;
41568;SDS011;27283;52.504;13.358;2022-09-28T05:22:16;1.20;;;1.02;;
41568;SDS011;27283;52.504;13.358;2022-09-28T05:24:48;1.30;;;1.20;;
41568;SDS011;27283;52.504;13.358;2022-09-28T05:27:21;1.52;;;1.42;;
41568;SDS011;27283;52.504;13.358;2022-09-28T05:29:54;3.60;;;1.48;;
41568;SDS011;27283;52.504;13.358;2022-09-28T05:32:26;3.35;;;1.25;;
41568;SDS011;27283;52.504;13.358;2022-09-28T05:34:57;1.25;;;1.15;;
41568;SDS011;27283;52.504;13.358;2022-09-28T05:37:35;1.83;;;1.73;;
41568;SDS011;27283;52.504;13.358;2022-09-28T05:40:08;2.42;;;1.50;;
41568;SDS011;27283;52.504;13.358;2022-09-28T05:42:41;1.00;;;1.00;;
41568;SDS011;27283;52.504;13.358;2022-09-28T05:45:14;1.35;;;1.25;;
41568;SDS011;27283;52.504;13.358;2022-09-28T05:47:45;3.88;;;1.45;;
41568;SDS011;27283;52.504;13.358;2022-09-28T05:50:17;1.83;;;1.60;;
41568;SDS011;27283;52.504;13.358;2022-09-28T05:52:59;1.67;;;1.42;;
41568;SDS011;27283;52.504;13.358;2022-09-28T05:55:31;2.63;;;1.92;;
41568;SDS011;27283;52.504;13.358;2022-09-28T05:58:04;1.20;;;1.20;;
41568;SDS011;27283;52.504;13.358;2022-09-28T06:00:37;1.80;;;1.70;;
41568;SDS011;27283;52.504;13.358;2022-09-28T06:03:10;1.25;;;1.15;;
41568;SDS011;27283;52.504;13.358;2022-09-28T06:05:44;1.83;;;1.73;;
41568;SDS011;27283;52.504;13.358;2022-09-28T06:08:18;10.68;;;2.47;;
41568;SDS011;27283;52.504;13.358;2022-09-28T06:10:51;1.30;;;1.20;;
41568;SDS011;27283;52.504;13.358;2022-09-28T06:13:23;1.00;;;1.00;;
41568;SDS011;27283;52.504;13.358;2022-09-28T06:15:55;2.20;;;1.88;;
41568;SDS011;27283;52.504;13.358;2022-09-28T06:18:27;2.63;;;1.83;;
41568;SDS011;27283;52.504;13.358;2022-09-28T06:20:59;0.85;;;0.85;;
41568;SDS011;27283;52.504;13.358;2022-09-28T06:23:35;1.05;;;1.05;;
41568;SDS011;27283;52.504;13.358;2022-09-28T06:26:11;1.25;;;1.25;;
41568;SDS011;27283;52.504;13.358;2022-09-28T06:28:43;1.15;;;1.05;;
41568;SDS011;27283;52.504;13.358;2022-09-28T06:31:15;1.17;;;1.08;;
41568;SDS011;27283;52.504;13.358;2022-09-28T06:33:51;1.30;;;1.27;;
41568;SDS011;27283;52.504;13.358;2022-09-28T06:36:23;2.42;;;1.67;;
41568;SDS011;27283;52.504;13.358;2022-09-28T06:38:57;1.17;;;1.10;;
41568;SDS011;27283;52.504;13.358;2022-09-28T06:41:30;2.28;;;1.63;;
41568;SDS011;27283;52.504;13.358;2022-09-28T06:44:02;3.17;;;1.67;;
41568;SDS011;27283;52.504;13.358;2022-09-28T06:46:34;1.30;;;1.20;;
41568;SDS011;27283;52.504;13.358;2022-09-28T06:49:06;1.00;;;1.00;;
41568;SDS011;27283;52.504;13.358;2022-09-28T06:51:45;3.45;;;1.90;;
41568;SDS011;27283;52.504;13.358;2022-09-28T06:54:20;1.83;;;1.73;;
41568;SDS011;27283;52.504;13.358;2022-09-28T06:56:53;1.75;;;1.48;;
41568;SDS011;27283;52.504;13.358;2022-09-28T06:59:26;1.77;;;1.67;;
41568;SDS011;27283;52.504;13.358;2022-09-28T07:02:00;1.98;;;1.55;;
41568;SDS011;27283;52.504;13.358;2022-09-28T07:04:32;1.58;;;1.48;;
41568;SDS011;27283;52.504;13.358;2022-09-28T07:07:05;1.10;;;1.10;;
41568;SDS011;27283;52.504;13.358;2022-09-28T07:09:41;2.17;;;2.05;;
41568;SDS011;27283;52.504;13.358;2022-09-28T07:12:20;1.70;;;1.60;;
41568;SDS011;27283;52.504;13.358;2022-09-28T07:14:53;1.65;;;1.55;;
41568;SDS011;27283;52.504;13.358;2022-09-28T07:17:26;2.13;;;1.75;;
41568;SDS011;27283;52.504;13.358;2022-09-28T07:20:00;5.57;;;1.52;;
41568;SDS011;27283;52.504;13.358;2022-09-28T07:22:45;1.63;;;1.50;;
41568;SDS011;27283;52.504;13.358;2022-09-28T07:25:20;1.25;;;1.15;;
41568;SDS011;27283;52.504;13.358;2022-09-28T07:27:54;2.22;;;2.03;;
41568;SDS011;27283;52.504;13.358;2022-09-28T07:30:28;1.73;;;1.63;;
41568;SDS011;27283;52.504;13.358;2022-09-28T07:33:02;2.30;;;2.10;;
41568;SDS011;27283;52.504;13.358;2022-09-28T07:35:35;2.17;;;1.70;;
41568;SDS011;27283;52.504;13.358;2022-09-28T07:38:09;1.92;;;1.83;;
41568;SDS011;27283;52.504;13.358;2022-09-28T07:40:44;3.15;;;2.47;;
41568;SDS011;27283;52.504;13.358;2022-09-28T07:43:29;3.13;;;2.67;;
41568;SDS011;27283;52.504;13.358;2022-09-28T07:46:02;2.55;;;1.75;;
41568;SDS011;27283;52.504;13.358;2022-09-28T07:48:40;3.78;;;2.08;;
41568;SDS011;27283;52.504;13.358;2022-09-28T07:51:13;2.33;;;2.13;;
41568;SDS011;27283;52.504;13.358;2022-09-28T07:53:47;1.17;;;1.17;;
41568;SDS011;27283;52.504;13.358;2022-09-28T07:56:24;2.58;;;2.08;;
41568;SDS011;27283;52.504;13.358;2022-09-28T07:58:57;7.65;;;3.50;;
41568;SDS011;27283;52.504;13.358;2022-09-28T08:01:29;2.60;;;2.15;;
41568;SDS011;27283;52.504;13.358;2022-09-28T08:04:02;3.05;;;2.53;;
41568;SDS011;27283;52.504;13.358;2022-09-28T08:06:34;1.88;;;1.48;;
41568;SDS011;27283;52.504;13.358;2022-09-28T08:09:08;1.65;;;1.55;;
41568;SDS011;27283;52.504;13.358;2022-09-28T08:12:14;3.50;;;2.13;;
41568;SDS011;27283;52.504;13.358;2022-09-28T08:14:47;5.20;;;2.00;;
41568;SDS011;27283;52.504;13.358;2022-09-28T08:17:20;3.30;;;2.05;;
41568;SDS011;27283;52.504;13.358;2022-09-28T08:19:52;1.80;;;1.63;;
41568;SDS011;27283;52.504;13.358;2022-09-28T08:22:37;2.05;;;1.40;;
41568;SDS011;27283;52.504;13.358;2022-09-28T08:25:10;1.85;;;1.38;;
41568;SDS011;27283;52.504;13.358;2022-09-28T08:27:45;1.75;;;1.63;;
41568;SDS011;27283;52.504;13.358;2022-09-28T08:30:18;1.15;;;1.05;;
41568;SDS011;27283;52.504;13.358;2022-09-28T08:32:50;1.52;;;1.33;;
41568;SDS011;27283;52.504;13.358;2022-09-28T08:35:23;2.35;;;1.10;;
41568;SDS011;27283;52.504;13.358;2022-09-28T08:37:55;2.08;;;1.50;;
41568;SDS011;27283;52.504;13.358;2022-09-28T08:40:32;2.42;;;1.90;;
41568;SDS011;27283;52.504;13.358;2022-09-28T08:43:14;2.22;;;1.20;;
41568;SDS011;27283;52.504;13.358;2022-09-28T08:45:56;1.10;;;1.00;;
41568;SDS011;27283;52.504;13.358;2022-09-28T08:48:31;2.65;;;1.23;;
41568;SDS011;27283;52.504;13.358;2022-09-28T08:51:43;1.23;;;1.00;;
41568;SDS011;27283;52.504;13.358;2022-09-28T08:54:27;1.92;;;1.45;;
41568;SDS011;27283;52.504;13.358;2022-09-28T08:57:10;23.08;;;2.25;;
41568;SDS011;27283;52.504;13.358;2022-09-28T08:59:49;2.15;;;1.40;;
41568;SDS011;27283;52.504;13.358;2022-09-28T09:02:24;1.90;;;1.38;;
41568;SDS011;27283;52.504;13.358;2022-09-28T09:05:02;1.02;;;0.98;;
41568;SDS011;27283;52.504;13.358;2022-09-28T09:10:37;1.85;;;1.50;;
41568;SDS011;27283;52.504;13.358;2022-09-28T09:13:34;1.65;;;1.52;;
41568;SDS011;27283;52.504;13.358;2022-09-28T09:16:38;1.85;;;1.00;;
41568;SDS011;27283;52.504;13.358;2022-09-28T09:19:33;1.75;;;1.25;;
41568;SDS011;27283;52.504;13.358;2022-09-28T09:22:13;0.77;;;0.77;;
41568;SDS011;27283;52.504;13.358;2022-09-28T09:24:48;0.88;;;0.85;;
41568;SDS011;27283;52.504;13.358;2022-09-28T09:27:33;1.15;;;1.05;;
41568;SDS011;27283;52.504;13.358;2022-09-28T09:30:16;1.08;;;0.98;;
41568;SDS011;27283;52.504;13.358;2022-09-28T09:33:07;1.83;;;1.00;;
41568;SDS011;27283;52.504;13.358;2022-09-28T09:36:05;0.40;;;0.40;;
41568;SDS011;27283;52.504;13.358;2022-09-28T09:38:51;3.00;;;1.27;;
41568;SDS011;27283;52.504;13.358;2022-09-28T09:41:38;0.65;;;0.45;;
41568;SDS011;27283;52.504;13.358;2022-09-28T09:47:18;0.52;;;0.52;;
41568;SDS011;27283;52.504;13.358;2022-09-28T09:49:57;0.32;;;0.32;;
41568;SDS011;27283;52.504;13.358;2022-09-28T09:52:39;0.45;;;0.45;;
41568;SDS011;27283;52.504;13.358;2022-09-28T09:55:21;0.40;;;0.40;;
41568;SDS011;27283;52.504;13.358;2022-09-28T09:58:03;0.20;;;0.20;;
41568;SDS011;27283;52.504;13.358;2022-09-28T10:00:40;0.50;;;0.50;;
41568;SDS011;27283;52.504;13.358;2022-09-28T10:03:20;0.30;;;0.30;;
41568;SDS011;27283;52.504;13.358;2022-09-28T10:05:57;0.68;;;0.65;;
41568;SDS011;27283;52.504;13.358;2022-09-28T10:08:34;1.25;;;0.55;;
41568;SDS011;27283;52.504;13.358;2022-09-28T10:11:11;0.77;;;0.50;;
41568;SDS011;27283;52.504;13.358;2022-09-28T10:13:47;0.50;;;0.50;;
41568;SDS011;27283;52.504;13.358;2022-09-28T10:16:19;0.30;;;0.30;;
41568;SDS011;27283;52.504;13.358;2022-09-28T10:18:51;0.55;;;0.55;;
41568;SDS011;27283;52.504;13.358;2022-09-28T10:21:26;0.60;;;0.50;;
41568;SDS011;27283;52.504;13.358;2022-09-28T10:24:06;0.75;;;0.68;;
41568;SDS011;27283;52.504;13.358;2022-09-28T10:26:46;4.55;;;0.98;;
41568;SDS011;27283;52.504;13.358;2022-09-28T10:29:21;1.85;;;0.73;;
41568;SDS011;27283;52.504;13.358;2022-09-28T10:31:56;0.65;;;0.60;;
41568;SDS011;27283;52.504;13.358;2022-09-28T10:34:28;0.47;;;0.40;;
41568;SDS011;27283;52.504;13.358;2022-09-28T10:37:04;2.22;;;0.68;;
41568;SDS011;27283;52.504;13.358;2022-09-28T10:39:42;0.30;;;0.30;;
41568;SDS011;27283;52.504;13.358;2022-09-28T10:42:18;1.10;;;0.57;;
41568;SDS011;27283;52.504;13.358;2022-09-28T10:44:54;1.13;;;0.50;;
41568;SDS011;27283;52.504;13.358;2022-09-28T10:47:29;0.50;;;0.50;;
41568;SDS011;27283;52.504;13.358;2022-09-28T10:50:03;0.30;;;0.30;;
41568;SDS011;27283;52.504;13.358;2022-09-28T10:52:52;0.30;;;0.30;;
41568;SDS011;27283;52.504;13.358;2022-09-28T10:55:40;0.45;;;0.40;;
41568;SDS011;27283;52.504;13.358;2022-09-28T10:58:27;0.30;;;0.30;;
41568;SDS011;27283;52.504;13.358;2022-09-28T11:01:08;1.38;;;0.65;;
41568;SDS011;27283;52.504;13.358;2022-09-28T11:03:48;0.20;;;0.20;;
41568;SDS011;27283;52.504;13.358;2022-09-28T11:06:23;1.10;;;0.73;;
41568;SDS011;27283;52.504;13.358;2022-09-28T11:09:00;1.17;;;0.73;;
41568;SDS011;27283;52.504;13.358;2022-09-28T11:11:38;0.30;;;0.30;;
41568;SDS011;27283;52.504;13.358;2022-09-28T11:14:17;0.50;;;0.50;;
41568;SDS011;27283;52.504;13.358;2022-09-28T11:19:48;0.50;;;0.50;;
41568;SDS011;27283;52.504;13.358;2022-09-28T11:22:22;0.30;;;0.30;;
41568;SDS011;27283;52.504;13.358;2022-09-28T11:25:18;1.05;;;0.85;;
41568;SDS011;27283;52.504;13.358;2022-09-28T11:27:57;0.40;;;0.40;;
41568;SDS011;27283;52.504;13.358;2022-09-28T11:30:32;0.38;;;0.38;;
41568;SDS011;27283;52.504;13.358;2022-09-28T11:33:10;0.40;;;0.40;;
41568;SDS011;27283;52.504;13.358;2022-09-28T11:35:48;0.82;;;0.82;;
41568;SDS011;27283;52.504;13.358;2022-09-28T11:38:31;0.50;;;0.50;;
41568;SDS011;27283;52.504;13.358;2022-09-28T11:41:22;0.40;;;0.40;;
41568;SDS011;27283;52.504;13.358;2022-09-28T11:44:20;0.43;;;0.43;;
41568;SDS011;27283;52.504;13.358;2022-09-28T11:47:10;1.00;;;0.73;;
41568;SDS011;27283;52.504;13.358;2022-09-28T11:49:52;0.60;;;0.60;;
41568;SDS011;27283;52.504;13.358;2022-09-28T11:52:34;0.40;;;0.40;;
41568;SDS011;27283;52.504;13.358;2022-09-28T11:55:13;0.35;;;0.35;;
41568;SDS011;27283;52.504;13.358;2022-09-28T11:57:59;0.50;;;0.50;;
41568;SDS011;27283;52.504;13.358;2022-09-28T12:00:38;0.60;;;0.60;;
41568;SDS011;27283;52.504;13.358;2022-09-28T12:03:17;1.17;;;0.75;;
41568;SDS011;27283;52.504;13.358;2022-09-28T12:05:54;1.02;;;0.52;;
41568;SDS011;27283;52.504;13.358;2022-09-28T12:08:30;0.55;;;0.52;;
41568;SDS011;27283;52.504;13.358;2022-09-28T12:11:08;0.43;;;0.43;;
41568;SDS011;27283;52.504;13.358;2022-09-28T12:13:48;0.40;;;0.40;;
41568;SDS011;27283;52.504;13.358;2022-09-28T12:16:23;0.68;;;0.68;;
41568;SDS011;27283;52.504;13.358;2022-09-28T12:19:21;0.38;;;0.38;;
41568;SDS011;27283;52.504;13.358;2022-09-28T12:21:59;0.30;;;0.30;;
41568;SDS011;27283;52.504;13.358;2022-09-28T12:24:36;0.30;;;0.30;;
41568;SDS011;27283;52.504;13.358;2022-09-28T12:27:13;0.77;;;0.50;;
41568;SDS011;27283;52.504;13.358;2022-09-28T12:29:57;6.40;;;0.95;;
41568;SDS011;27283;52.504;13.358;2022-09-28T12:32:35;0.30;;;0.30;;
41568;SDS011;27283;52.504;13.358;2022-09-28T12:35:13;0.43;;;0.43;;
41568;SDS011;27283;52.504;13.358;2022-09-28T12:37:54;0.30;;;0.30;;
41568;SDS011;27283;52.504;13.358;2022-09-28T12:40:36;0.60;;;0.47;;
41568;SDS011;27283;52.504;13.358;2022-09-28T12:46:35;0.30;;;0.30;;
41568;SDS011;27283;52.504;13.358;2022-09-28T12:49:37;0.32;;;0.32;;
41568;SDS011;27283;52.504;13.358;2022-09-28T12:52:43;0.30;;;0.30;;
41568;SDS011;27283;52.504;13.358;2022-09-28T12:55:37;1.52;;;0.73;;
41568;SDS011;27283;52.504;13.358;2022-09-28T12:58:28;0.47;;;0.40;;
41568;SDS011;27283;52.504;13.358;2022-09-28T13:01:20;0.30;;;0.30;;
41568;SDS011;27283;52.504;13.358;2022-09-28T13:04:15;0.60;;;0.55;;
41568;SDS011;27283;52.504;13.358;2022-09-28T13:07:18;0.40;;;0.38;;
41568;SDS011;27283;52.504;13.358;2022-09-28T13:10:00;0.30;;;0.30;;
41568;SDS011;27283;52.504;13.358;2022-09-28T13:12:45;0.40;;;0.40;;
41568;SDS011;27283;52.504;13.358;2022-09-28T13:15:32;0.43;;;0.43;;
41568;SDS011;27283;52.504;13.358;2022-09-28T13:18:13;0.30;;;0.30;;
41568;SDS011;27283;52.504;13.358;2022-09-28T13:20:56;0.30;;;0.30;;
41568;SDS011;27283;52.504;13.358;2022-09-28T13:23:37;0.30;;;0.30;;
41568;SDS011;27283;52.504;13.358;2022-09-28T13:26:18;0.32;;;0.32;;
41568;SDS011;27283;52.504;13.358;2022-09-28T13:28:56;0.20;;;0.20;;
41568;SDS011;27283;52.504;13.358;2022-09-28T13:31:32;0.35;;;0.35;;
41568;SDS011;27283;52.504;13.358;2022-09-28T13:34:09;0.30;;;0.30;;
41568;SDS011;27283;52.504;13.358;2022-09-28T13:39:51;0.22;;;0.22;;
41568;SDS011;27283;52.504;13.358;2022-09-28T13:42:35;0.30;;;0.30;;
41568;SDS011;27283;52.504;13.358;2022-09-28T13:45:29;1.25;;;0.55;;
41568;SDS011;27283;52.504;13.358;2022-09-28T13:48:16;0.30;;;0.30;;
41568;SDS011;27283;52.504;13.358;2022-09-28T13:53:56;0.30;;;0.30;;
41568;SDS011;27283;52.504;13.358;2022-09-28T13:56:48;2.10;;;1.02;;
41568;SDS011;27283;52.504;13.358;2022-09-28T13:59:29;0.40;;;0.40;;
41568;SDS011;27283;52.504;13.358;2022-09-28T14:02:12;0.63;;;0.63;;
41568;SDS011;27283;52.504;13.358;2022-09-28T14:04:59;0.43;;;0.43;;
41568;SDS011;27283;52.504;13.358;2022-09-28T14:16:25;0.20;;;0.20;;
41568;SDS011;27283;52.504;13.358;2022-09-28T14:18:59;0.30;;;0.30;;
41568;SDS011;27283;52.504;13.358;2022-09-28T14:24:43;0.20;;;0.20;;
41568;SDS011;27283;52.504;13.358;2022-09-28T14:27:42;0.30;;;0.30;;
41568;SDS011;27283;52.504;13.358;2022-09-28T14:30:42;0.30;;;0.30;;
41568;SDS011;27283;52.504;13.358;2022-09-28T14:33:22;0.77;;;0.50;;
41568;SDS011;27283;52.504;13.358;2022-09-28T14:35:58;0.50;;;0.50;;
41568;SDS011;27283;52.504;13.358;2022-09-28T14:38:33;0.20;;;0.20;;
41568;SDS011;27283;52.504;13.358;2022-09-28T14:41:27;0.20;;;0.20;;
41568;SDS011;27283;52.504;13.358;2022-09-28T14:44:06;0.50;;;0.50;;
41568;SDS011;27283;52.504;13.358;2022-09-28T14:46:40;0.40;;;0.30;;
41568;SDS011;27283;52.504;13.358;2022-09-28T14:52:36;0.43;;;0.35;;
41568;SDS011;27283;52.504;13.358;2022-09-28T14:55:14;0.50;;;0.45;;
41568;SDS011;27283;52.504;13.358;2022-09-28T14:57:52;0.32;;;0.32;;
41568;SDS011;27283;52.504;13.358;2022-09-28T15:00:29;0.57;;;0.57;;
41568;SDS011;27283;52.504;13.358;2022-09-28T15:03:03;0.65;;;0.65;;
41568;SDS011;27283;52.504;13.358;2022-09-28T15:05:41;0.20;;;0.20;;
41568;SDS011;27283;52.504;13.358;2022-09-28T15:08:14;0.60;;;0.45;;
41568;SDS011;27283;52.504;13.358;2022-09-28T15:10:49;0.30;;;0.30;;
41568;SDS011;27283;52.504;13.358;2022-09-28T15:13:23;0.20;;;0.20;;
41568;SDS011;27283;52.504;13.358;2022-09-28T15:16:02;0.40;;;0.40;;
41568;SDS011;27283;52.504;13.358;2022-09-28T15:21:45;0.40;;;0.40;;
41568;SDS011;27283;52.504;13.358;2022-09-28T15:24:25;0.57;;;0.57;;
41568;SDS011;27283;52.504;13.358;2022-09-28T15:27:02;0.68;;;0.68;;
41568;SDS011;27283;52.504;13.358;2022-09-28T15:29:56;0.73;;;0.68;;
41568;SDS011;27283;52.504;13.358;2022-09-28T15:32:32;0.85;;;0.73;;
41568;SDS011;27283;52.504;13.358;2022-09-28T15:35:10;0.35;;;0.35;;
41568;SDS011;27283;52.504;13.358;2022-09-28T15:37:44;0.25;;;0.25;;
41568;SDS011;27283;52.504;13.358;2022-09-28T15:40:18;0.40;;;0.40;;
41568;SDS011;27283;52.504;13.358;2022-09-28T15:42:55;0.30;;;0.30;;
41568;SDS011;27283;52.504;13.358;2022-09-28T15:45:29;0.60;;;0.60;;
41568;SDS011;27283;52.504;13.358;2022-09-28T15:51:02;0.52;;;0.52;;
41568;SDS011;27283;52.504;13.358;2022-09-28T15:53:40;0.30;;;0.30;;
41568;SDS011;27283;52.504;13.358;2022-09-28T15:56:14;0.38;;;0.38;;
41568;SDS011;27283;52.504;13.358;2022-09-28T15:59:06;0.55;;;0.55;;
41568;SDS011;27283;52.504;13.358;2022-09-28T16:01:41;0.68;;;0.68;;
41568;SDS011;27283;52.504;13.358;2022-09-28T16:07:20;0.93;;;0.70;;
41568;SDS011;27283;52.504;13.358;2022-09-28T16:09:55;1.52;;;0.60;;
41568;SDS011;27283;52.504;13.358;2022-09-28T16:12:41;0.43;;;0.43;;
41568;SDS011;27283;52.504;13.358;2022-09-28T16:15:16;1.02;;;0.93;;
41568;SDS011;27283;52.504;13.358;2022-09-28T16:17:52;0.63;;;0.63;;
41568;SDS011;27283;52.504;13.358;2022-09-28T16:20:31;0.50;;;0.50;;
41568;SDS011;27283;52.504;13.358;2022-09-28T16:23:07;0.50;;;0.50;;